createdAt,value
2022-10-09T00:01:15.407Z,4.10
2022-10-09T00:04:01.471Z,4.15
2022-10-09T00:06:47.266Z,4.28
2022-10-09T00:09:33.166Z,3.90
2022-10-09T00:12:18.664Z,3.53
2022-10-09T00:15:04.973Z,3.95
2022-10-09T00:17:51.082Z,4.28
2022-10-09T00:20:42.451Z,4.18
2022-10-09T00:23:28.670Z,3.90
2022-10-09T00:26:14.817Z,4.43
2022-10-09T00:29:01.001Z,3.88
2022-10-09T00:31:46.682Z,4.00
2022-10-09T00:34:32.420Z,4.00
2022-10-09T00:37:18.615Z,3.92
2022-10-09T00:40:04.792Z,3.88
2022-10-09T00:42:57.126Z,3.90
2022-10-09T00:45:50.875Z,3.92
2022-10-09T00:48:37.011Z,3.92
2022-10-09T00:51:22.659Z,3.33
2022-10-09T00:54:11.378Z,3.95
2022-10-09T00:56:57.403Z,3.35
2022-10-09T00:59:43.639Z,3.08
2022-10-09T01:02:29.710Z,3.20
2022-10-09T01:05:15.962Z,3.05
2022-10-09T01:08:08.475Z,3.47
2022-10-09T01:11:01.455Z,2.85
2022-10-09T01:13:53.059Z,3.00
2022-10-09T01:16:51.319Z,3.08
2022-10-09T01:19:54.746Z,3.17
2022-10-09T01:23:00.765Z,3.17
2022-10-09T01:26:15.161Z,2.70
2022-10-09T01:29:09.947Z,2.80
2022-10-09T01:31:55.885Z,2.90
2022-10-09T01:34:42.950Z,3.00
2022-10-09T01:37:30.501Z,2.88
2022-10-09T01:40:17.591Z,2.72
2022-10-09T01:43:02.990Z,2.35
2022-10-09T01:45:49.316Z,2.88
2022-10-09T01:48:35.006Z,2.72
2022-10-09T01:51:22.569Z,3.03
2022-10-09T01:54:09.541Z,2.92
2022-10-09T01:56:56.161Z,3.38
2022-10-09T01:59:43.799Z,3.08
2022-10-09T02:02:30.127Z,2.45
2022-10-09T02:05:21.254Z,2.85
2022-10-09T02:08:07.465Z,2.72
2022-10-09T02:10:55.851Z,2.70
2022-10-09T02:13:42.174Z,2.97
2022-10-09T02:16:33.558Z,3.33
2022-10-09T02:19:26.573Z,2.92
2022-10-09T02:22:19.104Z,2.78
2022-10-09T02:25:06.425Z,3.03
2022-10-09T02:27:52.085Z,2.90
2022-10-09T02:30:46.963Z,2.90
2022-10-09T02:33:35.402Z,2.53
2022-10-09T02:36:20.970Z,2.88
2022-10-09T02:39:07.390Z,2.92
2022-10-09T02:41:53.739Z,2.65
2022-10-09T02:44:39.215Z,2.85
2022-10-09T02:47:25.070Z,3.30
2022-10-09T02:50:10.610Z,3.30
2022-10-09T02:52:56.360Z,2.70
2022-10-09T02:55:42.318Z,3.00
2022-10-09T02:58:31.083Z,2.58
2022-10-09T03:01:17.813Z,3.10
2022-10-09T03:04:04.166Z,2.70
2022-10-09T03:06:50.158Z,3.08
2022-10-09T03:09:36.229Z,2.80
2022-10-09T03:12:22.242Z,3.38
2022-10-09T03:15:08.857Z,2.80
2022-10-09T03:17:54.646Z,2.65
2022-10-09T03:20:40.379Z,2.85
2022-10-09T03:23:26.988Z,2.35
2022-10-09T03:26:15.335Z,2.72
2022-10-09T03:29:00.784Z,2.72
2022-10-09T03:31:52.320Z,2.58
2022-10-09T03:34:38.725Z,2.60
2022-10-09T03:37:24.816Z,2.70
2022-10-09T03:40:10.870Z,2.63
2022-10-09T03:42:57.209Z,3.08
2022-10-09T03:45:43.745Z,2.35
2022-10-09T03:48:29.741Z,2.80
2022-10-09T03:51:15.190Z,2.20
2022-10-09T03:54:01.259Z,2.70
2022-10-09T03:56:46.876Z,2.60
2022-10-09T03:59:32.610Z,2.55
2022-10-09T04:02:18.140Z,2.55
2022-10-09T04:05:04.112Z,2.45
2022-10-09T04:07:49.765Z,2.35
2022-10-09T04:10:35.729Z,2.88
2022-10-09T04:13:21.226Z,2.90
2022-10-09T04:16:09.631Z,3.15
2022-10-09T04:18:55.574Z,3.03
2022-10-09T04:21:41.314Z,2.67
2022-10-09T04:24:27.355Z,3.05
2022-10-09T04:27:14.064Z,3.45
2022-10-09T04:29:59.929Z,3.67
2022-10-09T04:32:48.178Z,3.35
2022-10-09T04:35:34.341Z,3.53
2022-10-09T04:38:21.302Z,2.85
2022-10-09T04:41:07.446Z,3.03
2022-10-09T04:43:56.959Z,3.00
2022-10-09T04:46:42.621Z,3.03
2022-10-09T04:49:28.224Z,2.83
2022-10-09T04:52:13.712Z,3.05
2022-10-09T04:54:59.405Z,3.00
2022-10-09T04:57:44.958Z,3.35
2022-10-09T05:00:30.554Z,3.17
2022-10-09T05:03:16.618Z,3.33
2022-10-09T05:06:03.828Z,3.55
2022-10-09T05:08:50.084Z,3.70
2022-10-09T05:11:41.674Z,3.67
2022-10-09T05:14:29.071Z,4.10
2022-10-09T05:17:16.538Z,4.18
2022-10-09T05:20:04.411Z,3.25
2022-10-09T05:22:50.962Z,3.55
2022-10-09T05:25:37.806Z,3.42
2022-10-09T05:28:24.176Z,4.40
2022-10-09T05:31:23.933Z,6.00
2022-10-09T05:34:10.648Z,5.50
2022-10-09T05:36:56.748Z,5.40
2022-10-09T05:39:42.894Z,5.40
2022-10-09T05:42:28.549Z,4.45
2022-10-09T05:45:14.669Z,4.47
2022-10-09T05:48:00.228Z,9.55
2022-10-09T05:50:46.689Z,11.27
2022-10-09T05:53:32.628Z,8.63
2022-10-09T05:56:24.015Z,11.23
2022-10-09T05:59:15.746Z,7.95
2022-10-09T06:02:01.489Z,6.40
2022-10-09T06:04:47.140Z,4.75
2022-10-09T06:07:33.449Z,5.97
2022-10-09T06:10:19.693Z,6.70
2022-10-09T06:13:05.204Z,5.03
2022-10-09T06:15:54.883Z,4.50
2022-10-09T06:18:44.407Z,4.18
2022-10-09T06:21:34.481Z,3.63
2022-10-09T06:24:27.346Z,3.90
2022-10-09T06:27:15.190Z,4.80
2022-10-09T06:30:00.873Z,5.40
2022-10-09T06:32:47.920Z,6.07
2022-10-09T06:35:34.904Z,10.57
2022-10-09T06:38:21.321Z,8.82
2022-10-09T06:41:11.501Z,13.73
2022-10-09T06:44:02.721Z,8.30
2022-10-09T06:46:49.860Z,10.35
2022-10-09T06:49:35.497Z,6.25
2022-10-09T06:52:21.325Z,7.03
2022-10-09T06:55:07.313Z,7.00
2022-10-09T06:57:52.971Z,7.22
2022-10-09T07:00:38.945Z,7.00
2022-10-09T07:03:24.917Z,6.97
2022-10-09T07:06:13.809Z,6.45
2022-10-09T07:09:01.656Z,6.60
2022-10-09T07:11:49.288Z,7.03
2022-10-09T07:14:35.241Z,6.80
2022-10-09T07:17:20.770Z,6.50
2022-10-09T07:20:06.833Z,7.00
2022-10-09T07:22:52.943Z,6.35
2022-10-09T07:25:39.575Z,6.50
2022-10-09T07:28:27.433Z,6.50
2022-10-09T07:31:13.743Z,6.18
2022-10-09T07:34:00.505Z,4.85
2022-10-09T07:36:46.879Z,4.82
2022-10-09T07:39:32.567Z,5.13
2022-10-09T07:42:18.272Z,5.47
2022-10-09T07:45:05.272Z,5.97
2022-10-09T07:47:51.644Z,5.43
2022-10-09T07:50:37.721Z,5.80
2022-10-09T07:53:23.790Z,5.18
2022-10-09T07:56:18.224Z,4.90
2022-10-09T07:59:06.234Z,4.18
2022-10-09T08:01:51.877Z,4.38
2022-10-09T08:04:37.802Z,4.40
2022-10-09T08:07:23.478Z,4.85
2022-10-09T08:10:09.849Z,5.57
2022-10-09T08:12:55.647Z,4.63
2022-10-09T08:15:42.789Z,4.72
2022-10-09T08:18:28.534Z,7.07
2022-10-09T08:21:17.128Z,6.70
2022-10-09T08:24:03.146Z,8.15
2022-10-09T08:26:48.717Z,5.20
2022-10-09T08:29:39.937Z,6.32
2022-10-09T08:32:26.109Z,5.47
2022-10-09T08:35:11.729Z,5.57
2022-10-09T08:37:57.996Z,5.20
2022-10-09T08:40:46.556Z,5.18
2022-10-09T08:43:36.156Z,4.85
2022-10-09T08:47:14.229Z,4.05
2022-10-09T08:50:13.256Z,4.70
2022-10-09T08:53:34.220Z,5.45
2022-10-09T08:56:20.337Z,5.68
2022-10-09T08:59:06.075Z,4.82
2022-10-09T09:02:10.779Z,4.63
2022-10-09T09:05:19.429Z,4.00
2022-10-09T09:08:33.650Z,4.47
2022-10-09T09:11:38.423Z,4.05
2022-10-09T09:14:44.425Z,5.03
2022-10-09T09:17:39.357Z,4.85
2022-10-09T09:20:29.644Z,4.78
2022-10-09T09:23:16.566Z,3.47
2022-10-09T09:26:02.754Z,3.60
2022-10-09T09:28:52.691Z,3.95
2022-10-09T09:31:39.467Z,3.22
2022-10-09T09:34:35.289Z,3.70
2022-10-09T09:37:20.838Z,3.55
2022-10-09T09:43:23.104Z,3.92
2022-10-09T09:46:16.328Z,3.33
2022-10-09T09:49:07.051Z,3.88
2022-10-09T09:51:57.484Z,3.80
2022-10-09T09:54:48.193Z,3.45
2022-10-09T09:57:40.990Z,4.00
2022-10-09T10:00:27.051Z,3.58
2022-10-09T10:03:16.526Z,3.80
2022-10-09T10:06:02.615Z,4.10
2022-10-09T10:08:59.369Z,3.90
2022-10-09T10:11:59.779Z,4.18
2022-10-09T10:14:50.047Z,5.17
2022-10-09T10:17:37.182Z,4.40
2022-10-09T10:20:22.931Z,3.55
2022-10-09T10:23:41.831Z,4.88
2022-10-09T10:26:49.147Z,16.92
2022-10-09T10:29:47.797Z,5.43
2022-10-09T10:32:56.152Z,6.40
2022-10-09T10:35:44.213Z,34.15
2022-10-09T10:38:42.987Z,8.55
2022-10-09T10:41:32.573Z,4.32
2022-10-09T10:45:00.481Z,4.07
2022-10-09T10:47:53.139Z,4.05
2022-10-09T10:50:47.813Z,4.97
2022-10-09T10:54:09.481Z,3.58
2022-10-09T10:57:12.968Z,3.67
2022-10-09T11:00:07.834Z,3.80
2022-10-09T11:03:07.901Z,3.90
2022-10-09T11:05:57.857Z,3.28
2022-10-09T11:09:01.821Z,3.85
2022-10-09T11:11:56.122Z,3.25
2022-10-09T11:14:51.301Z,3.03
2022-10-09T11:17:51.050Z,3.58
2022-10-09T11:20:58.940Z,4.90
2022-10-09T11:24:24.126Z,3.70
2022-10-09T11:27:22.121Z,2.78
2022-10-09T11:30:13.077Z,4.05
2022-10-09T11:33:38.742Z,3.03
2022-10-09T11:36:28.047Z,3.00
2022-10-09T11:39:23.958Z,3.03
2022-10-09T11:42:10.785Z,2.90
2022-10-09T11:45:05.107Z,3.38
2022-10-09T11:48:11.883Z,3.30
2022-10-09T11:51:19.859Z,3.00
2022-10-09T11:54:12.719Z,2.28
2022-10-09T11:57:00.456Z,2.40
2022-10-09T11:59:48.213Z,1.80
2022-10-09T12:02:34.955Z,1.95
2022-10-09T12:05:39.881Z,2.33
2022-10-09T12:08:26.988Z,2.40
2022-10-09T12:11:17.514Z,1.92
2022-10-09T12:14:05.896Z,1.80
2022-10-09T12:16:52.212Z,2.00
2022-10-09T12:19:39.669Z,2.67
2022-10-09T12:22:29.133Z,2.28
2022-10-09T12:25:28.578Z,2.20
2022-10-09T12:28:19.992Z,2.63
2022-10-09T12:31:14.563Z,2.05
2022-10-09T12:34:19.249Z,1.92
2022-10-09T12:37:20.623Z,2.20
2022-10-09T12:40:09.938Z,2.03
2022-10-09T12:42:56.921Z,1.98
2022-10-09T12:45:45.566Z,1.98
2022-10-09T12:48:37.236Z,2.38
2022-10-09T12:51:25.730Z,1.70
2022-10-09T12:54:14.988Z,2.95
2022-10-09T12:57:01.508Z,1.98
2022-10-09T12:59:47.983Z,1.63
2022-10-09T13:02:33.724Z,1.92
2022-10-09T13:05:19.611Z,1.60
2022-10-09T13:08:06.302Z,1.80
2022-10-09T13:10:52.936Z,1.50
2022-10-09T13:13:39.586Z,1.40
2022-10-09T13:16:25.544Z,1.55
2022-10-09T13:19:26.110Z,1.20
2022-10-09T13:22:14.397Z,1.33
2022-10-09T13:25:00.545Z,2.13
2022-10-09T13:27:45.958Z,1.95
2022-10-09T13:30:32.174Z,1.20
2022-10-09T13:33:18.214Z,1.48
2022-10-09T13:36:04.429Z,1.23
2022-10-09T13:38:50.478Z,1.80
2022-10-09T13:41:36.840Z,1.50
2022-10-09T13:44:23.012Z,1.50
2022-10-09T13:47:09.102Z,1.38
2022-10-09T13:49:54.790Z,1.50
2022-10-09T13:58:17.089Z,1.40
2022-10-09T14:01:03.168Z,1.17
2022-10-09T14:03:49.611Z,1.42
2022-10-09T14:06:36.668Z,1.70
2022-10-09T14:09:22.666Z,1.80
2022-10-09T14:12:08.730Z,1.95
2022-10-09T14:14:54.506Z,1.55
2022-10-09T14:17:40.221Z,1.95
2022-10-09T14:20:27.072Z,1.42
2022-10-09T14:23:13.594Z,1.33
2022-10-09T14:26:04.029Z,1.73
2022-10-09T14:28:49.951Z,1.20
2022-10-09T14:31:35.759Z,1.42
2022-10-09T14:34:21.967Z,1.35
2022-10-09T14:37:18.755Z,1.83
2022-10-09T14:40:13.619Z,1.95
2022-10-09T14:42:59.543Z,1.52
2022-10-09T14:45:45.070Z,2.47
2022-10-09T14:48:30.964Z,2.10
2022-10-09T14:51:22.026Z,2.65
2022-10-09T14:54:08.841Z,2.55
2022-10-09T14:56:55.075Z,2.55
2022-10-09T14:59:41.002Z,2.38
2022-10-09T15:02:26.458Z,2.15
2022-10-09T15:05:12.301Z,2.30
2022-10-09T15:07:57.830Z,2.17
2022-10-09T15:10:44.002Z,2.28
2022-10-09T15:13:29.969Z,2.50
2022-10-09T15:16:17.580Z,2.92
2022-10-09T15:19:04.643Z,3.03
2022-10-09T15:21:50.257Z,2.40
2022-10-09T15:24:35.868Z,3.03
2022-10-09T15:27:21.934Z,3.33
2022-10-09T15:30:08.479Z,3.30
2022-10-09T15:32:54.842Z,3.47
2022-10-09T15:35:40.333Z,2.85
2022-10-09T15:38:26.493Z,3.13
2022-10-09T15:41:25.314Z,7.00
2022-10-09T15:44:16.876Z,6.18
2022-10-09T15:47:03.448Z,6.20
2022-10-09T15:49:53.357Z,6.38
2022-10-09T15:52:39.175Z,4.63
2022-10-09T15:55:24.843Z,5.72
2022-10-09T15:58:10.987Z,5.30
2022-10-09T16:01:02.533Z,5.10
2022-10-09T16:03:48.425Z,5.03
2022-10-09T16:06:34.406Z,5.63
2022-10-09T16:09:19.950Z,6.43
2022-10-09T16:12:05.834Z,6.38
2022-10-09T16:14:51.681Z,6.47
2022-10-09T16:17:37.811Z,6.82
2022-10-09T16:20:23.478Z,7.57
2022-10-09T16:23:10.683Z,7.97
2022-10-09T16:26:02.913Z,7.60
2022-10-09T16:28:49.895Z,7.72
2022-10-09T16:31:36.488Z,7.93
2022-10-09T16:34:22.492Z,11.80
2022-10-09T16:37:07.913Z,10.07
2022-10-09T16:39:53.587Z,25.02
2022-10-09T16:42:39.623Z,24.20
2022-10-09T16:45:25.943Z,19.98
2022-10-09T16:48:11.560Z,26.55
2022-10-09T16:50:57.616Z,20.17
2022-10-09T16:53:43.450Z,26.65
2022-10-09T16:56:33.082Z,22.08
2022-10-09T16:59:18.966Z,24.00
2022-10-09T17:02:04.601Z,22.85
2022-10-09T17:04:50.017Z,20.63
2022-10-09T17:07:36.043Z,21.58
2022-10-09T17:10:21.812Z,25.17
2022-10-09T17:13:07.734Z,26.70
2022-10-09T17:15:53.420Z,27.60
2022-10-09T17:18:39.613Z,27.20
2022-10-09T17:21:29.297Z,29.17
2022-10-09T17:24:18.890Z,24.33
2022-10-09T17:27:08.929Z,34.88
2022-10-09T17:29:54.788Z,37.78
2022-10-09T17:32:40.585Z,59.45
2022-10-09T17:35:26.165Z,35.63
2022-10-09T17:38:11.720Z,49.10
2022-10-09T17:40:57.526Z,48.38
2022-10-09T17:43:42.908Z,49.88
2022-10-09T17:46:30.536Z,61.90
2022-10-09T17:49:16.613Z,73.38
2022-10-09T17:52:03.089Z,96.18
2022-10-09T17:54:49.088Z,78.95
2022-10-09T17:57:34.860Z,82.00
2022-10-09T18:00:21.935Z,67.53
2022-10-09T18:03:08.092Z,59.30
2022-10-09T18:05:53.412Z,70.32
2022-10-09T18:08:39.917Z,86.22
2022-10-09T18:11:27.367Z,79.50
2022-10-09T18:14:13.413Z,90.60
2022-10-09T18:16:59.556Z,86.82
2022-10-09T18:19:45.506Z,91.75
2022-10-09T18:22:31.679Z,86.43
2022-10-09T18:25:17.652Z,104.60
2022-10-09T18:28:03.293Z,89.63
2022-10-09T18:30:49.264Z,78.70
2022-10-09T18:33:35.546Z,65.35
2022-10-09T18:36:24.569Z,61.08
2022-10-09T18:39:13.668Z,63.13
2022-10-09T18:42:02.185Z,65.07
2022-10-09T18:44:47.722Z,412.02
2022-10-09T18:47:35.236Z,170.73
2022-10-09T18:50:21.383Z,104.38
2022-10-09T18:53:07.594Z,80.32
2022-10-09T18:55:53.247Z,69.15
2022-10-09T18:58:40.717Z,57.00
2022-10-09T19:01:27.350Z,55.25
2022-10-09T19:04:13.156Z,55.75
2022-10-09T19:06:58.887Z,45.58
2022-10-09T19:09:44.913Z,47.05
2022-10-09T19:12:30.467Z,56.83
2022-10-09T19:15:16.450Z,52.42
2022-10-09T19:18:02.362Z,54.15
2022-10-09T19:20:48.835Z,51.40
2022-10-09T19:23:34.575Z,55.78
2022-10-09T19:26:21.193Z,55.72
2022-10-09T19:29:07.580Z,101.07
2022-10-09T19:31:54.136Z,87.80
2022-10-09T19:34:39.744Z,69.55
2022-10-09T19:37:28.961Z,68.60
2022-10-09T19:40:15.748Z,68.72
2022-10-09T19:43:01.604Z,62.28
2022-10-09T19:45:49.763Z,57.95
2022-10-09T19:48:36.673Z,58.70
2022-10-09T19:51:25.506Z,60.70
2022-10-09T19:54:12.405Z,72.55
2022-10-09T19:56:58.188Z,58.08
2022-10-09T19:59:44.263Z,55.85
2022-10-09T20:02:30.477Z,56.55
2022-10-09T20:05:16.574Z,56.25
2022-10-09T20:08:02.246Z,45.65
2022-10-09T20:10:48.209Z,53.25
2022-10-09T20:13:36.148Z,56.92
2022-10-09T20:16:22.430Z,52.55
2022-10-09T20:19:08.327Z,53.60
2022-10-09T20:21:54.277Z,51.80
2022-10-09T20:24:39.667Z,52.15
2022-10-09T20:27:25.822Z,73.70
2022-10-09T20:30:12.127Z,66.35
2022-10-09T20:32:59.439Z,65.45
2022-10-09T20:35:45.465Z,63.35
2022-10-09T20:38:31.421Z,64.95
2022-10-09T20:41:17.056Z,58.40
2022-10-09T20:44:04.037Z,61.15
2022-10-09T20:46:50.172Z,58.03
2022-10-09T20:49:36.088Z,48.75
2022-10-09T20:52:22.121Z,47.13
2022-10-09T20:55:08.211Z,44.30
2022-10-09T20:57:55.002Z,44.70
2022-10-09T21:00:42.963Z,138.85
2022-10-09T21:03:28.724Z,128.70
2022-10-09T21:06:17.386Z,85.30
2022-10-09T21:09:03.379Z,85.72
2022-10-09T21:11:50.617Z,44.25
2022-10-09T21:14:36.648Z,26.58
2022-10-09T21:17:22.994Z,18.15
2022-10-09T21:20:09.021Z,16.55
2022-10-09T21:22:54.895Z,14.50
2022-10-09T21:25:50.128Z,13.57
2022-10-09T21:28:36.040Z,13.98
2022-10-09T21:31:26.132Z,14.05
2022-10-09T21:34:11.996Z,14.18
2022-10-09T21:40:03.965Z,13.50
2022-10-09T21:42:49.929Z,14.77
2022-10-09T21:45:36.872Z,13.95
2022-10-09T21:48:22.552Z,14.43
2022-10-09T21:51:08.618Z,15.57
2022-10-09T21:53:55.054Z,15.77
2022-10-09T21:56:41.224Z,16.63
2022-10-09T21:59:27.199Z,15.50
2022-10-09T22:02:13.159Z,16.77
2022-10-09T22:04:59.326Z,16.40
2022-10-09T22:07:44.961Z,16.52
2022-10-09T22:10:30.686Z,17.10
2022-10-09T22:13:17.638Z,16.25
2022-10-09T22:16:08.161Z,16.40
2022-10-09T22:21:40.063Z,18.30
2022-10-09T22:24:29.186Z,17.45
2022-10-09T22:27:15.315Z,15.38
2022-10-09T22:30:01.306Z,17.25
2022-10-09T22:32:46.890Z,16.58
2022-10-09T22:35:32.925Z,15.98
2022-10-09T22:38:18.474Z,17.77
2022-10-09T22:41:12.530Z,16.52
2022-10-09T22:43:59.399Z,17.00
2022-10-09T22:46:45.894Z,16.75
2022-10-09T22:49:31.379Z,16.33
2022-10-09T22:52:17.471Z,16.98
2022-10-09T22:55:04.052Z,17.23
2022-10-09T22:57:49.836Z,18.00
2022-10-09T23:00:38.431Z,17.33
2022-10-09T23:03:24.518Z,17.50
2022-10-09T23:06:12.725Z,17.25
2022-10-09T23:08:59.296Z,16.48
2022-10-09T23:11:45.149Z,16.42
2022-10-09T23:14:31.219Z,16.67
2022-10-09T23:17:16.828Z,16.92
2022-10-09T23:20:03.205Z,17.02
2022-10-09T23:22:49.135Z,17.50
2022-10-09T23:25:39.925Z,16.83
2022-10-09T23:28:27.848Z,16.75
2022-10-09T23:31:14.776Z,17.30
2022-10-09T23:34:00.372Z,16.02
2022-10-09T23:36:46.346Z,16.98
2022-10-09T23:39:31.842Z,17.23
2022-10-09T23:42:17.840Z,17.38
2022-10-09T23:45:03.646Z,17.17
2022-10-09T23:47:49.795Z,15.75
2022-10-09T23:50:35.270Z,16.25
2022-10-09T23:53:21.876Z,15.93
2022-10-09T23:56:23.794Z,17.38
2022-10-09T23:59:11.123Z,16.73
